sensor_id;sensor_type;location;lat;lon;timestamp;P1;durP1;ratioP1;P2;durP2;ratioP2
16137;SDS011;8174;43.550;5.206;2022-08-19T00:01:20;3.00;;;2.70;;
16137;SDS011;8174;43.550;5.206;2022-08-19T00:03:47;3.20;;;2.80;;
16137;SDS011;8174;43.550;5.206;2022-08-19T00:06:15;4.25;;;2.40;;
16137;SDS011;8174;43.550;5.206;2022-08-19T00:08:43;3.00;;;2.70;;
16137;SDS011;8174;43.550;5.206;2022-08-19T00:11:11;3.63;;;2.97;;
16137;SDS011;8174;43.550;5.206;2022-08-19T00:13:39;3.10;;;2.80;;
16137;SDS011;8174;43.550;5.206;2022-08-19T00:16:06;2.90;;;2.70;;
16137;SDS011;8174;43.550;5.206;2022-08-19T00:18:35;3.75;;;2.75;;
16137;SDS011;8174;43.550;5.206;2022-08-19T00:21:03;3.67;;;2.50;;
16137;SDS011;8174;43.550;5.206;2022-08-19T00:23:33;5.45;;;2.80;;
16137;SDS011;8174;43.550;5.206;2022-08-19T00:26:01;2.95;;;2.60;;
16137;SDS011;8174;43.550;5.206;2022-08-19T00:28:29;3.40;;;2.70;;
16137;SDS011;8174;43.550;5.206;2022-08-19T00:30:58;3.65;;;2.67;;
16137;SDS011;8174;43.550;5.206;2022-08-19T00:33:27;4.13;;;2.60;;
16137;SDS011;8174;43.550;5.206;2022-08-19T00:35:57;3.05;;;2.05;;
16137;SDS011;8174;43.550;5.206;2022-08-19T00:38:26;3.22;;;2.70;;
16137;SDS011;8174;43.550;5.206;2022-08-19T00:40:53;3.25;;;2.75;;
16137;SDS011;8174;43.550;5.206;2022-08-19T00:43:22;3.35;;;2.67;;
16137;SDS011;8174;43.550;5.206;2022-08-19T00:45:50;5.32;;;2.53;;
16137;SDS011;8174;43.550;5.206;2022-08-19T00:48:18;3.10;;;2.45;;
16137;SDS011;8174;43.550;5.206;2022-08-19T00:50:47;3.42;;;2.30;;
16137;SDS011;8174;43.550;5.206;2022-08-19T00:53:19;3.55;;;2.30;;
16137;SDS011;8174;43.550;5.206;2022-08-19T00:55:47;2.97;;;2.30;;
16137;SDS011;8174;43.550;5.206;2022-08-19T00:58:17;3.17;;;2.20;;
16137;SDS011;8174;43.550;5.206;2022-08-19T01:00:45;2.63;;;2.30;;
16137;SDS011;8174;43.550;5.206;2022-08-19T01:03:14;2.47;;;2.28;;
16137;SDS011;8174;43.550;5.206;2022-08-19T01:05:42;4.72;;;2.50;;
16137;SDS011;8174;43.550;5.206;2022-08-19T01:08:10;4.70;;;2.53;;
16137;SDS011;8174;43.550;5.206;2022-08-19T01:10:40;3.65;;;2.42;;
16137;SDS011;8174;43.550;5.206;2022-08-19T01:13:09;3.88;;;2.00;;
16137;SDS011;8174;43.550;5.206;2022-08-19T01:15:40;2.22;;;2.00;;
16137;SDS011;8174;43.550;5.206;2022-08-19T01:18:09;5.13;;;2.33;;
16137;SDS011;8174;43.550;5.206;2022-08-19T01:20:38;2.50;;;2.30;;
16137;SDS011;8174;43.550;5.206;2022-08-19T01:23:08;3.83;;;2.40;;
16137;SDS011;8174;43.550;5.206;2022-08-19T01:25:38;5.10;;;2.55;;
16137;SDS011;8174;43.550;5.206;2022-08-19T01:28:07;3.80;;;2.33;;
16137;SDS011;8174;43.550;5.206;2022-08-19T01:30:35;2.30;;;2.10;;
16137;SDS011;8174;43.550;5.206;2022-08-19T01:33:02;2.70;;;2.25;;
16137;SDS011;8174;43.550;5.206;2022-08-19T01:35:30;3.75;;;2.10;;
16137;SDS011;8174;43.550;5.206;2022-08-19T01:37:59;2.30;;;2.10;;
16137;SDS011;8174;43.550;5.206;2022-08-19T01:40:28;2.42;;;2.15;;
16137;SDS011;8174;43.550;5.206;2022-08-19T01:42:57;2.78;;;2.03;;
16137;SDS011;8174;43.550;5.206;2022-08-19T01:45:25;4.45;;;2.20;;
16137;SDS011;8174;43.550;5.206;2022-08-19T01:47:53;3.75;;;2.20;;
16137;SDS011;8174;43.550;5.206;2022-08-19T01:50:21;3.40;;;2.22;;
16137;SDS011;8174;43.550;5.206;2022-08-19T01:52:48;2.40;;;2.20;;
16137;SDS011;8174;43.550;5.206;2022-08-19T01:55:18;4.15;;;2.42;;
16137;SDS011;8174;43.550;5.206;2022-08-19T01:57:48;2.85;;;2.35;;
16137;SDS011;8174;43.550;5.206;2022-08-19T02:00:18;3.92;;;2.50;;
16137;SDS011;8174;43.550;5.206;2022-08-19T02:02:45;2.40;;;2.20;;
16137;SDS011;8174;43.550;5.206;2022-08-19T02:05:13;3.05;;;2.28;;
16137;SDS011;8174;43.550;5.206;2022-08-19T02:07:43;3.50;;;2.63;;
16137;SDS011;8174;43.550;5.206;2022-08-19T02:10:12;2.92;;;2.20;;
16137;SDS011;8174;43.550;5.206;2022-08-19T02:12:41;3.03;;;2.30;;
16137;SDS011;8174;43.550;5.206;2022-08-19T02:15:10;2.53;;;2.20;;
16137;SDS011;8174;43.550;5.206;2022-08-19T02:17:38;2.40;;;2.20;;
16137;SDS011;8174;43.550;5.206;2022-08-19T02:20:06;2.83;;;2.20;;
16137;SDS011;8174;43.550;5.206;2022-08-19T02:22:33;3.22;;;2.35;;
16137;SDS011;8174;43.550;5.206;2022-08-19T02:25:01;3.95;;;2.50;;
16137;SDS011;8174;43.550;5.206;2022-08-19T02:27:29;3.55;;;2.38;;
16137;SDS011;8174;43.550;5.206;2022-08-19T02:29:57;3.00;;;2.10;;
16137;SDS011;8174;43.550;5.206;2022-08-19T02:32:26;2.38;;;2.10;;
16137;SDS011;8174;43.550;5.206;2022-08-19T02:34:55;2.22;;;2.03;;
16137;SDS011;8174;43.550;5.206;2022-08-19T02:37:23;2.92;;;2.50;;
16137;SDS011;8174;43.550;5.206;2022-08-19T02:40:08;3.63;;;2.60;;
16137;SDS011;8174;43.550;5.206;2022-08-19T02:42:36;2.60;;;2.40;;
16137;SDS011;8174;43.550;5.206;2022-08-19T02:45:03;4.85;;;2.50;;
16137;SDS011;8174;43.550;5.206;2022-08-19T02:47:33;3.92;;;2.50;;
16137;SDS011;8174;43.550;5.206;2022-08-19T02:50:01;3.63;;;2.47;;
16137;SDS011;8174;43.550;5.206;2022-08-19T02:52:29;4.80;;;2.58;;
16137;SDS011;8174;43.550;5.206;2022-08-19T02:54:56;3.35;;;2.53;;
16137;SDS011;8174;43.550;5.206;2022-08-19T02:57:24;5.13;;;2.80;;
16137;SDS011;8174;43.550;5.206;2022-08-19T02:59:52;2.95;;;2.70;;
16137;SDS011;8174;43.550;5.206;2022-08-19T03:02:19;3.50;;;2.85;;
16137;SDS011;8174;43.550;5.206;2022-08-19T03:04:48;3.28;;;2.90;;
16137;SDS011;8174;43.550;5.206;2022-08-19T03:07:17;3.10;;;2.80;;
16137;SDS011;8174;43.550;5.206;2022-08-19T03:09:44;4.32;;;2.90;;
16137;SDS011;8174;43.550;5.206;2022-08-19T03:12:12;4.00;;;2.90;;
16137;SDS011;8174;43.550;5.206;2022-08-19T03:14:39;3.20;;;2.90;;
16137;SDS011;8174;43.550;5.206;2022-08-19T03:17:07;3.63;;;3.33;;
16137;SDS011;8174;43.550;5.206;2022-08-19T03:19:35;3.30;;;3.00;;
16137;SDS011;8174;43.550;5.206;2022-08-19T03:22:04;5.78;;;3.35;;
16137;SDS011;8174;43.550;5.206;2022-08-19T03:24:33;3.60;;;3.30;;
16137;SDS011;8174;43.550;5.206;2022-08-19T03:27:00;3.78;;;3.40;;
16137;SDS011;8174;43.550;5.206;2022-08-19T03:29:30;6.60;;;3.67;;
16137;SDS011;8174;43.550;5.206;2022-08-19T03:31:58;4.20;;;3.63;;
16137;SDS011;8174;43.550;5.206;2022-08-19T03:34:27;3.85;;;3.50;;
16137;SDS011;8174;43.550;5.206;2022-08-19T03:36:56;3.97;;;3.50;;
16137;SDS011;8174;43.550;5.206;2022-08-19T03:39:25;3.95;;;3.60;;
16137;SDS011;8174;43.550;5.206;2022-08-19T03:41:53;4.45;;;3.15;;
16137;SDS011;8174;43.550;5.206;2022-08-19T03:44:23;3.95;;;3.38;;
16137;SDS011;8174;43.550;5.206;2022-08-19T03:46:51;3.70;;;3.40;;
16137;SDS011;8174;43.550;5.206;2022-08-19T03:49:19;4.57;;;3.78;;
16137;SDS011;8174;43.550;5.206;2022-08-19T03:51:47;3.50;;;3.20;;
16137;SDS011;8174;43.550;5.206;2022-08-19T03:54:16;5.18;;;3.38;;
16137;SDS011;8174;43.550;5.206;2022-08-19T03:56:46;3.45;;;3.15;;
16137;SDS011;8174;43.550;5.206;2022-08-19T03:59:15;3.30;;;3.00;;
16137;SDS011;8174;43.550;5.206;2022-08-19T04:01:43;3.88;;;3.20;;
16137;SDS011;8174;43.550;5.206;2022-08-19T04:04:11;3.40;;;3.10;;
16137;SDS011;8174;43.550;5.206;2022-08-19T04:06:39;3.30;;;3.00;;
16137;SDS011;8174;43.550;5.206;2022-08-19T04:09:07;3.47;;;3.10;;
16137;SDS011;8174;43.550;5.206;2022-08-19T04:11:36;3.80;;;3.28;;
16137;SDS011;8174;43.550;5.206;2022-08-19T04:14:06;3.35;;;3.00;;
16137;SDS011;8174;43.550;5.206;2022-08-19T04:16:34;3.33;;;2.88;;
16137;SDS011;8174;43.550;5.206;2022-08-19T04:19:03;5.10;;;2.80;;
16137;SDS011;8174;43.550;5.206;2022-08-19T04:21:30;5.20;;;2.78;;
16137;SDS011;8174;43.550;5.206;2022-08-19T04:23:58;4.50;;;2.60;;
16137;SDS011;8174;43.550;5.206;2022-08-19T04:26:27;5.30;;;2.85;;
16137;SDS011;8174;43.550;5.206;2022-08-19T04:28:57;2.97;;;2.78;;
16137;SDS011;8174;43.550;5.206;2022-08-19T04:31:31;4.20;;;2.90;;
16137;SDS011;8174;43.550;5.206;2022-08-19T04:34:02;3.75;;;2.85;;
16137;SDS011;8174;43.550;5.206;2022-08-19T04:36:32;3.35;;;3.05;;
16137;SDS011;8174;43.550;5.206;2022-08-19T04:39:00;3.50;;;3.20;;
16137;SDS011;8174;43.550;5.206;2022-08-19T04:41:28;3.63;;;3.33;;
16137;SDS011;8174;43.550;5.206;2022-08-19T04:44:14;3.63;;;2.90;;
16137;SDS011;8174;43.550;5.206;2022-08-19T04:46:44;4.50;;;2.70;;
16137;SDS011;8174;43.550;5.206;2022-08-19T04:49:13;4.88;;;2.90;;
16137;SDS011;8174;43.550;5.206;2022-08-19T04:51:42;4.68;;;2.95;;
16137;SDS011;8174;43.550;5.206;2022-08-19T04:54:10;3.70;;;3.13;;
16137;SDS011;8174;43.550;5.206;2022-08-19T04:56:38;5.78;;;2.80;;
16137;SDS011;8174;43.550;5.206;2022-08-19T04:59:06;6.32;;;3.05;;
16137;SDS011;8174;43.550;5.206;2022-08-19T05:01:34;3.28;;;2.97;;
16137;SDS011;8174;43.550;5.206;2022-08-19T05:04:03;3.17;;;2.88;;
16137;SDS011;8174;43.550;5.206;2022-08-19T05:06:31;3.30;;;3.00;;
16137;SDS011;8174;43.550;5.206;2022-08-19T05:08:59;4.00;;;2.88;;
16137;SDS011;8174;43.550;5.206;2022-08-19T05:11:28;3.20;;;2.90;;
16137;SDS011;8174;43.550;5.206;2022-08-19T05:13:56;3.15;;;2.85;;
16137;SDS011;8174;43.550;5.206;2022-08-19T05:16:24;3.63;;;2.90;;
16137;SDS011;8174;43.550;5.206;2022-08-19T05:18:52;3.28;;;2.72;;
16137;SDS011;8174;43.550;5.206;2022-08-19T05:21:40;3.08;;;2.88;;
16137;SDS011;8174;43.550;5.206;2022-08-19T05:24:25;3.35;;;3.05;;
16137;SDS011;8174;43.550;5.206;2022-08-19T05:26:53;3.33;;;2.80;;
16137;SDS011;8174;43.550;5.206;2022-08-19T05:29:22;3.83;;;3.33;;
16137;SDS011;8174;43.550;5.206;2022-08-19T05:31:50;3.03;;;2.72;;
16137;SDS011;8174;43.550;5.206;2022-08-19T05:34:19;4.47;;;2.88;;
16137;SDS011;8174;43.550;5.206;2022-08-19T05:36:49;4.95;;;3.10;;
16137;SDS011;8174;43.550;5.206;2022-08-19T05:39:20;3.67;;;3.10;;
16137;SDS011;8174;43.550;5.206;2022-08-19T05:41:49;4.15;;;2.80;;
16137;SDS011;8174;43.550;5.206;2022-08-19T05:44:17;5.43;;;3.10;;
16137;SDS011;8174;43.550;5.206;2022-08-19T05:46:46;3.35;;;3.05;;
16137;SDS011;8174;43.550;5.206;2022-08-19T05:49:14;3.55;;;2.70;;
16137;SDS011;8174;43.550;5.206;2022-08-19T05:51:43;4.90;;;3.03;;
16137;SDS011;8174;43.550;5.206;2022-08-19T05:54:12;4.25;;;2.90;;
16137;SDS011;8174;43.550;5.206;2022-08-19T05:56:40;6.07;;;3.03;;
16137;SDS011;8174;43.550;5.206;2022-08-19T05:59:08;4.35;;;2.92;;
16137;SDS011;8174;43.550;5.206;2022-08-19T06:01:37;4.20;;;2.80;;
16137;SDS011;8174;43.550;5.206;2022-08-19T06:04:05;3.35;;;2.70;;
16137;SDS011;8174;43.550;5.206;2022-08-19T06:06:32;2.45;;;2.25;;
16137;SDS011;8174;43.550;5.206;2022-08-19T06:09:00;4.78;;;2.45;;
16137;SDS011;8174;43.550;5.206;2022-08-19T06:11:34;5.32;;;2.30;;
16137;SDS011;8174;43.550;5.206;2022-08-19T06:14:02;2.80;;;2.40;;
16137;SDS011;8174;43.550;5.206;2022-08-19T06:16:30;4.13;;;2.50;;
16137;SDS011;8174;43.550;5.206;2022-08-19T06:19:00;3.60;;;2.30;;
16137;SDS011;8174;43.550;5.206;2022-08-19T06:21:29;3.42;;;2.47;;
16137;SDS011;8174;43.550;5.206;2022-08-19T06:23:57;3.03;;;2.20;;
16137;SDS011;8174;43.550;5.206;2022-08-19T06:26:25;3.95;;;2.15;;
16137;SDS011;8174;43.550;5.206;2022-08-19T06:28:54;3.95;;;2.47;;
16137;SDS011;8174;43.550;5.206;2022-08-19T06:31:22;5.30;;;2.33;;
16137;SDS011;8174;43.550;5.206;2022-08-19T06:33:50;4.82;;;2.42;;
16137;SDS011;8174;43.550;5.206;2022-08-19T06:36:18;3.47;;;2.42;;
16137;SDS011;8174;43.550;5.206;2022-08-19T06:38:46;4.05;;;2.40;;
16137;SDS011;8174;43.550;5.206;2022-08-19T06:41:13;3.90;;;2.80;;
16137;SDS011;8174;43.550;5.206;2022-08-19T06:43:41;4.15;;;2.45;;
16137;SDS011;8174;43.550;5.206;2022-08-19T06:46:11;4.45;;;2.60;;
16137;SDS011;8174;43.550;5.206;2022-08-19T06:48:39;2.58;;;2.25;;
16137;SDS011;8174;43.550;5.206;2022-08-19T06:51:06;7.22;;;2.65;;
16137;SDS011;8174;43.550;5.206;2022-08-19T06:53:34;3.03;;;2.33;;
16137;SDS011;8174;43.550;5.206;2022-08-19T06:56:02;6.00;;;2.50;;
16137;SDS011;8174;43.550;5.206;2022-08-19T06:58:29;3.53;;;2.55;;
16137;SDS011;8174;43.550;5.206;2022-08-19T07:00:59;4.50;;;2.70;;
16137;SDS011;8174;43.550;5.206;2022-08-19T07:03:30;5.30;;;2.60;;
16137;SDS011;8174;43.550;5.206;2022-08-19T07:06:02;6.00;;;2.88;;
16137;SDS011;8174;43.550;5.206;2022-08-19T07:08:30;4.10;;;2.58;;
16137;SDS011;8174;43.550;5.206;2022-08-19T07:10:57;4.32;;;3.10;;
16137;SDS011;8174;43.550;5.206;2022-08-19T07:13:25;2.95;;;2.42;;
16137;SDS011;8174;43.550;5.206;2022-08-19T07:15:52;9.68;;;2.95;;
16137;SDS011;8174;43.550;5.206;2022-08-19T07:18:20;3.65;;;2.55;;
16137;SDS011;8174;43.550;5.206;2022-08-19T07:21:01;4.53;;;2.33;;
16137;SDS011;8174;43.550;5.206;2022-08-19T07:23:28;4.43;;;2.17;;
16137;SDS011;8174;43.550;5.206;2022-08-19T07:26:04;2.92;;;2.60;;
16137;SDS011;8174;43.550;5.206;2022-08-19T07:28:32;7.78;;;2.70;;
16137;SDS011;8174;43.550;5.206;2022-08-19T07:30:59;4.53;;;3.03;;
16137;SDS011;8174;43.550;5.206;2022-08-19T07:33:28;4.05;;;2.63;;
16137;SDS011;8174;43.550;5.206;2022-08-19T07:35:59;4.47;;;2.70;;
16137;SDS011;8174;43.550;5.206;2022-08-19T07:38:26;6.78;;;2.95;;
16137;SDS011;8174;43.550;5.206;2022-08-19T07:40:54;7.95;;;3.33;;
16137;SDS011;8174;43.550;5.206;2022-08-19T07:43:23;6.30;;;3.65;;
16137;SDS011;8174;43.550;5.206;2022-08-19T07:45:54;5.80;;;2.83;;
16137;SDS011;8174;43.550;5.206;2022-08-19T07:48:27;4.63;;;3.17;;
16137;SDS011;8174;43.550;5.206;2022-08-19T07:50:56;18.67;;;4.57;;
16137;SDS011;8174;43.550;5.206;2022-08-19T07:53:29;8.85;;;3.30;;
16137;SDS011;8174;43.550;5.206;2022-08-19T07:55:58;5.50;;;3.15;;
16137;SDS011;8174;43.550;5.206;2022-08-19T07:58:29;5.13;;;3.08;;
16137;SDS011;8174;43.550;5.206;2022-08-19T08:00:57;11.95;;;3.67;;
16137;SDS011;8174;43.550;5.206;2022-08-19T08:03:27;3.40;;;3.10;;
16137;SDS011;8174;43.550;5.206;2022-08-19T08:06:09;4.50;;;3.13;;
16137;SDS011;8174;43.550;5.206;2022-08-19T08:08:55;3.22;;;2.92;;
16137;SDS011;8174;43.550;5.206;2022-08-19T08:11:44;6.15;;;2.97;;
16137;SDS011;8174;43.550;5.206;2022-08-19T08:14:14;4.22;;;3.00;;
16137;SDS011;8174;43.550;5.206;2022-08-19T08:16:42;3.65;;;2.90;;
16137;SDS011;8174;43.550;5.206;2022-08-19T08:19:10;4.70;;;3.10;;
16137;SDS011;8174;43.550;5.206;2022-08-19T08:21:40;4.68;;;3.10;;
16137;SDS011;8174;43.550;5.206;2022-08-19T08:24:10;3.38;;;2.97;;
16137;SDS011;8174;43.550;5.206;2022-08-19T08:26:38;7.55;;;3.35;;
16137;SDS011;8174;43.550;5.206;2022-08-19T08:29:06;5.63;;;2.90;;
16137;SDS011;8174;43.550;5.206;2022-08-19T08:31:36;6.20;;;3.03;;
16137;SDS011;8174;43.550;5.206;2022-08-19T08:34:04;6.20;;;3.28;;
16137;SDS011;8174;43.550;5.206;2022-08-19T08:36:32;2.88;;;2.67;;
16137;SDS011;8174;43.550;5.206;2022-08-19T08:39:00;5.93;;;3.35;;
16137;SDS011;8174;43.550;5.206;2022-08-19T08:41:31;6.53;;;3.55;;
16137;SDS011;8174;43.550;5.206;2022-08-19T08:44:02;5.30;;;3.10;;
16137;SDS011;8174;43.550;5.206;2022-08-19T08:46:33;5.13;;;3.00;;
16137;SDS011;8174;43.550;5.206;2022-08-19T08:49:06;7.03;;;3.58;;
16137;SDS011;8174;43.550;5.206;2022-08-19T08:51:43;6.18;;;3.28;;
16137;SDS011;8174;43.550;5.206;2022-08-19T08:54:14;4.32;;;3.03;;
16137;SDS011;8174;43.550;5.206;2022-08-19T08:56:43;4.15;;;2.85;;
16137;SDS011;8174;43.550;5.206;2022-08-19T08:59:12;6.53;;;3.38;;
16137;SDS011;8174;43.550;5.206;2022-08-19T09:01:42;5.00;;;2.97;;
16137;SDS011;8174;43.550;5.206;2022-08-19T09:04:09;4.03;;;3.50;;
16137;SDS011;8174;43.550;5.206;2022-08-19T09:06:38;8.25;;;3.28;;
16137;SDS011;8174;43.550;5.206;2022-08-19T09:09:14;19.85;;;3.58;;
16137;SDS011;8174;43.550;5.206;2022-08-19T09:11:47;3.42;;;3.03;;
16137;SDS011;8174;43.550;5.206;2022-08-19T09:14:19;5.63;;;2.90;;
16137;SDS011;8174;43.550;5.206;2022-08-19T09:16:48;6.05;;;2.97;;
16137;SDS011;8174;43.550;5.206;2022-08-19T09:19:16;6.63;;;3.13;;
16137;SDS011;8174;43.550;5.206;2022-08-19T09:21:44;9.23;;;3.10;;
16137;SDS011;8174;43.550;5.206;2022-08-19T09:24:11;4.45;;;3.15;;
16137;SDS011;8174;43.550;5.206;2022-08-19T09:26:39;4.28;;;2.90;;
16137;SDS011;8174;43.550;5.206;2022-08-19T09:29:10;5.85;;;2.80;;
16137;SDS011;8174;43.550;5.206;2022-08-19T09:31:37;4.78;;;3.55;;
16137;SDS011;8174;43.550;5.206;2022-08-19T09:34:05;5.78;;;2.90;;
16137;SDS011;8174;43.550;5.206;2022-08-19T09:36:33;4.53;;;3.13;;
16137;SDS011;8174;43.550;5.206;2022-08-19T09:39:04;6.15;;;2.97;;
16137;SDS011;8174;43.550;5.206;2022-08-19T09:41:32;8.07;;;3.55;;
16137;SDS011;8174;43.550;5.206;2022-08-19T09:43:59;5.28;;;2.95;;
16137;SDS011;8174;43.550;5.206;2022-08-19T09:46:28;3.85;;;3.10;;
16137;SDS011;8174;43.550;5.206;2022-08-19T09:48:57;4.82;;;3.25;;
16137;SDS011;8174;43.550;5.206;2022-08-19T09:51:25;3.63;;;2.85;;
16137;SDS011;8174;43.550;5.206;2022-08-19T09:53:54;4.10;;;2.80;;
16137;SDS011;8174;43.550;5.206;2022-08-19T09:56:25;5.68;;;3.17;;
16137;SDS011;8174;43.550;5.206;2022-08-19T09:58:53;5.97;;;3.33;;
16137;SDS011;8174;43.550;5.206;2022-08-19T10:01:22;4.65;;;3.10;;
16137;SDS011;8174;43.550;5.206;2022-08-19T10:03:52;3.85;;;3.38;;
16137;SDS011;8174;43.550;5.206;2022-08-19T10:06:21;4.88;;;3.00;;
16137;SDS011;8174;43.550;5.206;2022-08-19T10:08:49;6.20;;;3.13;;
16137;SDS011;8174;43.550;5.206;2022-08-19T10:11:17;4.43;;;3.00;;
16137;SDS011;8174;43.550;5.206;2022-08-19T10:13:46;6.40;;;2.85;;
16137;SDS011;8174;43.550;5.206;2022-08-19T10:16:14;11.70;;;2.95;;
16137;SDS011;8174;43.550;5.206;2022-08-19T10:18:43;13.88;;;3.75;;
16137;SDS011;8174;43.550;5.206;2022-08-19T10:21:13;5.78;;;2.90;;
16137;SDS011;8174;43.550;5.206;2022-08-19T10:23:41;6.25;;;3.05;;
16137;SDS011;8174;43.550;5.206;2022-08-19T10:26:11;6.50;;;3.40;;
16137;SDS011;8174;43.550;5.206;2022-08-19T10:28:39;4.32;;;2.70;;
16137;SDS011;8174;43.550;5.206;2022-08-19T10:31:06;4.15;;;2.88;;
16137;SDS011;8174;43.550;5.206;2022-08-19T10:33:34;3.85;;;2.75;;
16137;SDS011;8174;43.550;5.206;2022-08-19T10:36:03;3.85;;;2.72;;
16137;SDS011;8174;43.550;5.206;2022-08-19T10:38:33;5.90;;;2.58;;
16137;SDS011;8174;43.550;5.206;2022-08-19T10:41:06;5.15;;;2.95;;
16137;SDS011;8174;43.550;5.206;2022-08-19T10:43:34;4.93;;;2.60;;
16137;SDS011;8174;43.550;5.206;2022-08-19T10:46:03;3.88;;;2.60;;
16137;SDS011;8174;43.550;5.206;2022-08-19T10:48:31;2.67;;;2.47;;
16137;SDS011;8174;43.550;5.206;2022-08-19T10:51:00;4.60;;;2.90;;
16137;SDS011;8174;43.550;5.206;2022-08-19T10:53:46;5.10;;;3.10;;
16137;SDS011;8174;43.550;5.206;2022-08-19T10:56:14;4.75;;;2.63;;
16137;SDS011;8174;43.550;5.206;2022-08-19T10:58:59;12.02;;;3.00;;
16137;SDS011;8174;43.550;5.206;2022-08-19T11:01:28;4.75;;;2.95;;
16137;SDS011;8174;43.550;5.206;2022-08-19T11:03:59;3.70;;;2.65;;
16137;SDS011;8174;43.550;5.206;2022-08-19T11:06:29;3.55;;;2.70;;
16137;SDS011;8174;43.550;5.206;2022-08-19T11:08:59;4.53;;;2.67;;
16137;SDS011;8174;43.550;5.206;2022-08-19T11:11:27;3.67;;;2.80;;
16137;SDS011;8174;43.550;5.206;2022-08-19T11:13:54;4.47;;;2.85;;
16137;SDS011;8174;43.550;5.206;2022-08-19T11:16:23;3.67;;;2.90;;
16137;SDS011;8174;43.550;5.206;2022-08-19T11:18:56;6.00;;;3.17;;
16137;SDS011;8174;43.550;5.206;2022-08-19T11:21:25;3.17;;;2.80;;
16137;SDS011;8174;43.550;5.206;2022-08-19T11:23:54;3.42;;;2.65;;
16137;SDS011;8174;43.550;5.206;2022-08-19T11:26:24;3.47;;;2.80;;
16137;SDS011;8174;43.550;5.206;2022-08-19T11:28:52;4.72;;;3.20;;
16137;SDS011;8174;43.550;5.206;2022-08-19T11:31:21;3.40;;;3.00;;
16137;SDS011;8174;43.550;5.206;2022-08-19T11:33:49;3.47;;;3.10;;
16137;SDS011;8174;43.550;5.206;2022-08-19T11:36:17;3.78;;;3.30;;
16137;SDS011;8174;43.550;5.206;2022-08-19T11:38:45;5.75;;;3.25;;
16137;SDS011;8174;43.550;5.206;2022-08-19T11:41:14;4.43;;;3.20;;
16137;SDS011;8174;43.550;5.206;2022-08-19T11:43:44;4.68;;;3.05;;
16137;SDS011;8174;43.550;5.206;2022-08-19T11:46:12;7.45;;;3.60;;
16137;SDS011;8174;43.550;5.206;2022-08-19T11:48:40;3.80;;;3.38;;
16137;SDS011;8174;43.550;5.206;2022-08-19T11:51:09;5.43;;;3.53;;
16137;SDS011;8174;43.550;5.206;2022-08-19T11:53:37;4.70;;;3.80;;
16137;SDS011;8174;43.550;5.206;2022-08-19T11:56:06;6.60;;;4.13;;
16137;SDS011;8174;43.550;5.206;2022-08-19T11:58:34;4.43;;;3.95;;
16137;SDS011;8174;43.550;5.206;2022-08-19T12:01:06;5.50;;;3.80;;
16137;SDS011;8174;43.550;5.206;2022-08-19T12:03:34;6.22;;;4.10;;
16137;SDS011;8174;43.550;5.206;2022-08-19T12:06:04;7.45;;;3.92;;
16137;SDS011;8174;43.550;5.206;2022-08-19T12:08:34;6.93;;;4.05;;
16137;SDS011;8174;43.550;5.206;2022-08-19T12:11:01;7.85;;;4.15;;
16137;SDS011;8174;43.550;5.206;2022-08-19T12:13:33;4.63;;;4.10;;
16137;SDS011;8174;43.550;5.206;2022-08-19T12:16:01;5.70;;;4.00;;
16137;SDS011;8174;43.550;5.206;2022-08-19T12:18:36;5.57;;;3.95;;
16137;SDS011;8174;43.550;5.206;2022-08-19T12:21:04;4.07;;;3.67;;
16137;SDS011;8174;43.550;5.206;2022-08-19T12:23:32;3.80;;;3.15;;
16137;SDS011;8174;43.550;5.206;2022-08-19T12:26:02;6.00;;;3.92;;
16137;SDS011;8174;43.550;5.206;2022-08-19T12:28:30;5.22;;;3.70;;
16137;SDS011;8174;43.550;5.206;2022-08-19T12:30:57;5.07;;;4.20;;
16137;SDS011;8174;43.550;5.206;2022-08-19T12:33:25;4.45;;;3.90;;
16137;SDS011;8174;43.550;5.206;2022-08-19T12:35:55;6.90;;;4.07;;
16137;SDS011;8174;43.550;5.206;2022-08-19T12:38:27;5.38;;;3.65;;
16137;SDS011;8174;43.550;5.206;2022-08-19T12:40:55;6.18;;;3.70;;
16137;SDS011;8174;43.550;5.206;2022-08-19T12:43:23;7.78;;;3.90;;
16137;SDS011;8174;43.550;5.206;2022-08-19T12:45:50;4.00;;;3.58;;
16137;SDS011;8174;43.550;5.206;2022-08-19T12:48:18;3.78;;;3.47;;
16137;SDS011;8174;43.550;5.206;2022-08-19T12:50:46;4.40;;;3.60;;
16137;SDS011;8174;43.550;5.206;2022-08-19T12:53:15;6.68;;;3.88;;
16137;SDS011;8174;43.550;5.206;2022-08-19T12:55:43;4.05;;;3.50;;
16137;SDS011;8174;43.550;5.206;2022-08-19T12:58:10;5.90;;;4.53;;
16137;SDS011;8174;43.550;5.206;2022-08-19T13:00:38;5.18;;;4.65;;
16137;SDS011;8174;43.550;5.206;2022-08-19T13:03:06;4.75;;;4.30;;
16137;SDS011;8174;43.550;5.206;2022-08-19T13:05:34;5.15;;;4.20;;
16137;SDS011;8174;43.550;5.206;2022-08-19T13:08:02;5.45;;;4.20;;
16137;SDS011;8174;43.550;5.206;2022-08-19T13:10:31;5.05;;;4.00;;
16137;SDS011;8174;43.550;5.206;2022-08-19T13:13:00;5.00;;;4.38;;
16137;SDS011;8174;43.550;5.206;2022-08-19T13:15:28;6.05;;;4.47;;
16137;SDS011;8174;43.550;5.206;2022-08-19T13:17:56;7.32;;;4.38;;
16137;SDS011;8174;43.550;5.206;2022-08-19T13:20:24;5.97;;;4.55;;
16137;SDS011;8174;43.550;5.206;2022-08-19T13:22:52;5.00;;;4.50;;
16137;SDS011;8174;43.550;5.206;2022-08-19T13:25:22;7.35;;;5.15;;
16137;SDS011;8174;43.550;5.206;2022-08-19T13:27:51;5.40;;;4.90;;
16137;SDS011;8174;43.550;5.206;2022-08-19T13:30:21;6.55;;;4.57;;
16137;SDS011;8174;43.550;5.206;2022-08-19T13:33:07;6.93;;;4.32;;
16137;SDS011;8174;43.550;5.206;2022-08-19T13:35:44;5.53;;;4.43;;
16137;SDS011;8174;43.550;5.206;2022-08-19T13:38:12;6.25;;;4.90;;
16137;SDS011;8174;43.550;5.206;2022-08-19T13:40:42;5.90;;;4.28;;
16137;SDS011;8174;43.550;5.206;2022-08-19T13:43:11;8.32;;;4.60;;
16137;SDS011;8174;43.550;5.206;2022-08-19T13:45:41;8.43;;;4.20;;
16137;SDS011;8174;43.550;5.206;2022-08-19T13:48:11;6.00;;;4.28;;
16137;SDS011;8174;43.550;5.206;2022-08-19T13:50:40;5.00;;;4.50;;
16137;SDS011;8174;43.550;5.206;2022-08-19T13:53:08;6.60;;;4.60;;
16137;SDS011;8174;43.550;5.206;2022-08-19T13:55:36;6.15;;;4.45;;
16137;SDS011;8174;43.550;5.206;2022-08-19T13:58:04;6.90;;;4.50;;
16137;SDS011;8174;43.550;5.206;2022-08-19T14:00:34;6.90;;;4.30;;
16137;SDS011;8174;43.550;5.206;2022-08-19T14:03:03;7.30;;;4.47;;
16137;SDS011;8174;43.550;5.206;2022-08-19T14:05:31;6.30;;;4.68;;
16137;SDS011;8174;43.550;5.206;2022-08-19T14:07:59;6.35;;;4.38;;
16137;SDS011;8174;43.550;5.206;2022-08-19T14:10:29;5.85;;;4.20;;
16137;SDS011;8174;43.550;5.206;2022-08-19T14:12:57;5.45;;;4.50;;
16137;SDS011;8174;43.550;5.206;2022-08-19T14:15:26;5.72;;;4.43;;
16137;SDS011;8174;43.550;5.206;2022-08-19T14:17:56;5.53;;;4.20;;
16137;SDS011;8174;43.550;5.206;2022-08-19T14:20:24;7.05;;;4.30;;
16137;SDS011;8174;43.550;5.206;2022-08-19T14:22:55;5.90;;;4.28;;
16137;SDS011;8174;43.550;5.206;2022-08-19T14:25:24;4.70;;;4.22;;
16137;SDS011;8174;43.550;5.206;2022-08-19T14:27:53;7.45;;;4.43;;
16137;SDS011;8174;43.550;5.206;2022-08-19T14:30:22;6.93;;;4.30;;
16137;SDS011;8174;43.550;5.206;2022-08-19T14:32:50;5.07;;;4.30;;
16137;SDS011;8174;43.550;5.206;2022-08-19T14:35:20;6.53;;;4.85;;
16137;SDS011;8174;43.550;5.206;2022-08-19T14:37:50;5.97;;;5.03;;
16137;SDS011;8174;43.550;5.206;2022-08-19T14:40:22;7.00;;;4.60;;
16137;SDS011;8174;43.550;5.206;2022-08-19T14:42:51;8.82;;;4.60;;
16137;SDS011;8174;43.550;5.206;2022-08-19T14:45:20;7.85;;;4.40;;
16137;SDS011;8174;43.550;5.206;2022-08-19T14:47:48;7.50;;;4.30;;
16137;SDS011;8174;43.550;5.206;2022-08-19T14:50:16;6.22;;;4.13;;
16137;SDS011;8174;43.550;5.206;2022-08-19T14:52:45;10.57;;;4.30;;
16137;SDS011;8174;43.550;5.206;2022-08-19T14:55:13;7.63;;;3.80;;
16137;SDS011;8174;43.550;5.206;2022-08-19T14:57:41;4.95;;;3.60;;
16137;SDS011;8174;43.550;5.206;2022-08-19T15:00:10;5.78;;;3.70;;
16137;SDS011;8174;43.550;5.206;2022-08-19T15:02:39;5.13;;;3.30;;
16137;SDS011;8174;43.550;5.206;2022-08-19T15:05:09;4.43;;;3.42;;
16137;SDS011;8174;43.550;5.206;2022-08-19T15:07:37;4.05;;;3.40;;
16137;SDS011;8174;43.550;5.206;2022-08-19T15:10:07;4.43;;;3.53;;
16137;SDS011;8174;43.550;5.206;2022-08-19T15:12:36;5.45;;;3.35;;